Time;durP1;ratioP1;P1;durP2;ratioP2;P2;SDS_P1;SDS_P2;PMS_P1;PMS_P2;Temp;Humidity;BMP_temperature;BMP_pressure;BME280_temperature;BME280_humidity;BME280_pressure;Samples;Min_cycle;Max_cycle;Signal;HPM_P1;HPM_P2
2021/06/21 00:00:02;;;;;;;5.27;1.83;;;;;;;20.18;84.73;98386.47;5153357;27;20435;-73
2021/06/21 00:02:29;;;;;;;6.60;2.47;;;;;;;20.23;85.41;98383.19;5153165;27;20457;-73
2021/06/21 00:04:57;;;;;;;5.43;2.13;;;;;;;20.15;85.91;98384.09;5153250;27;20468;-73
2021/06/21 00:07:24;;;;;;;4.80;1.70;;;;;;;20.06;86.08;98372.38;5153171;27;20431;-74
2021/06/21 00:09:50;;;;;;;4.23;2.20;;;;;;;19.90;87.16;98376.03;5136083;27;20541;-73
2021/06/21 00:12:18;;;;;;;5.33;2.00;;;;;;;19.93;86.98;98391.22;5153594;27;20450;-73
2021/06/21 00:14:46;;;;;;;4.77;1.80;;;;;;;20.26;84.50;98389.16;5153118;27;20550;-74
2021/06/21 00:17:15;;;;;;;4.20;1.57;;;;;;;20.40;83.58;98393.84;5153396;27;20510;-73
2021/06/21 00:19:41;;;;;;;4.50;1.70;;;;;;;20.25;84.58;98394.81;5152941;27;20449;-73
2021/06/21 00:22:10;;;;;;;8.03;2.50;;;;;;;20.04;85.68;98379.91;5152963;27;20467;-73
2021/06/21 00:24:36;;;;;;;6.07;1.60;;;;;;;20.01;86.08;98382.97;5153179;27;20510;-74
2021/06/21 00:27:03;;;;;;;10.00;2.57;;;;;;;20.03;85.77;98377.34;5153162;27;20443;-74
2021/06/21 00:29:30;;;;;;;3.30;1.80;;;;;;;20.08;85.21;98375.78;5153042;27;20449;-74
2021/06/21 00:31:57;;;;;;;4.03;1.67;;;;;;;20.23;84.20;98369.53;5152915;27;20431;-73
2021/06/21 00:34:23;;;;;;;5.03;1.67;;;;;;;20.20;84.18;98365.28;5153166;27;20811;-72
2021/06/21 00:36:50;;;;;;;3.77;2.20;;;;;;;20.19;83.86;98378.09;5153060;27;20423;-73
2021/06/21 00:39:18;;;;;;;4.93;1.90;;;;;;;20.21;84.19;98375.16;5152926;27;20530;-73
2021/06/21 00:41:45;;;;;;;8.53;2.07;;;;;;;20.15;84.79;98381.38;5153175;27;20445;-74
2021/06/21 00:44:11;;;;;;;6.73;1.80;;;;;;;20.21;83.76;98375.16;5152970;27;20425;-73
2021/06/21 00:46:38;;;;;;;5.17;2.73;;;;;;;20.34;82.34;98375.44;5152785;27;20459;-73
2021/06/21 00:49:05;;;;;;;3.63;1.77;;;;;;;20.13;83.37;98373.34;5152685;27;20510;-73
2021/06/21 00:51:33;;;;;;;4.20;1.80;;;;;;;20.10;83.36;98379.19;5152730;27;20431;-74
2021/06/21 00:54:00;;;;;;;7.20;1.67;;;;;;;20.06;84.31;98380.56;5152647;27;20441;-74
2021/06/21 00:56:28;;;;;;;4.57;2.23;;;;;;;20.09;83.70;98385.66;5152587;27;20434;-73
2021/06/21 00:59:03;;;;;;;4.80;2.37;;;;;;;19.99;84.90;98382.31;5152708;27;20530;-74
2021/06/21 01:01:30;;;;;;;6.30;2.10;;;;;;;20.00;83.97;98384.84;5152475;27;20438;-74
2021/06/21 01:04:00;;;;;;;8.30;2.47;;;;;;;20.00;84.07;98375.81;5152566;27;21004;-73
2021/06/21 01:06:27;;;;;;;6.90;1.77;;;;;;;19.91;84.52;98379.63;5152391;27;20845;-74
2021/06/21 01:08:54;;;;;;;6.00;2.20;;;;;;;20.02;84.12;98367.44;5152597;27;20450;-73
2021/06/21 01:11:23;;;;;;;8.37;2.20;;;;;;;19.98;84.25;98384.19;5152369;27;20420;-73
2021/06/21 01:14:06;;;;;;;3.97;1.80;;;;;;;20.05;83.75;98380.75;5153220;27;20830;-73
2021/06/21 01:16:40;;;;;;;9.70;2.33;;;;;;;20.02;83.98;98395.63;5149800;27;20434;-73
2021/06/21 01:19:13;;;;;;;5.40;2.00;;;;;;;19.91;83.81;98415.13;5156672;27;21079;-73
2021/06/21 01:22:10;;;;;;;7.07;1.63;;;;;;;20.04;83.87;98415.41;5156492;27;20920;-74
2021/06/21 01:25:10;;;;;;;7.03;1.70;;;;;;;20.27;82.26;98417.34;5156154;27;20440;-75
2021/06/21 01:27:51;;;;;;;7.87;1.60;;;;;;;20.13;82.53;98417.06;5149099;27;20470;-74
2021/06/21 01:30:22;;;;;;;5.70;2.03;;;;;;;20.20;82.26;98411.75;5156219;27;20901;-74
2021/06/21 01:32:52;;;;;;;6.83;1.70;;;;;;;20.20;81.67;98396.19;5155886;27;20470;-73
2021/06/21 01:35:23;;;;;;;8.60;2.10;;;;;;;19.98;82.97;98386.91;5155910;27;20485;-74
2021/06/21 01:37:55;;;;;;;4.15;1.73;;;;;;;20.03;83.21;98396.47;5156152;27;20884;-73
2021/06/21 01:40:23;;;;;;;4.73;1.67;;;;;;;20.01;83.07;98399.34;5155693;27;20225;-74
2021/06/21 01:42:54;;;;;;;10.10;2.60;;;;;;;20.00;83.44;98408.59;5155757;27;20420;-73
2021/06/21 01:45:23;;;;;;;3.35;1.70;;;;;;;19.98;82.87;98407.91;5155678;27;20430;-73
2021/06/21 01:47:53;;;;;;;8.63;2.25;;;;;;;19.79;84.08;98426.44;5156452;27;20232;-73
2021/06/21 01:50:21;;;;;;;9.30;2.00;;;;;;;19.81;84.41;98429.00;5155525;27;20623;-74
2021/06/21 01:52:53;;;;;;;10.37;2.23;;;;;;;19.91;84.42;98423.31;5155870;27;20189;-74
2021/06/21 01:55:22;;;;;;;5.85;2.25;;;;;;;19.90;83.88;98421.59;5155550;27;20463;-74
2021/06/21 01:57:52;;;;;;;4.63;1.83;;;;;;;19.93;83.93;98432.19;5155779;27;20214;-73
2021/06/21 02:00:20;;;;;;;7.95;2.00;;;;;;;19.98;83.28;98421.56;5155599;27;20424;-73
2021/06/21 02:02:49;;;;;;;4.85;2.05;;;;;;;19.83;84.47;98413.31;5155359;27;20276;-73
2021/06/21 02:05:18;;;;;;;7.35;2.00;;;;;;;19.69;85.56;98406.66;5154969;27;20243;-73
2021/06/21 02:07:48;;;;;;;5.30;2.10;;;;;;;19.60;85.97;98404.97;5153052;27;20192;-73
2021/06/21 02:10:17;;;;;;;7.63;2.40;;;;;;;19.50;86.82;98407.06;5155518;27;20500;-73
2021/06/21 02:12:45;;;;;;;11.70;2.13;;;;;;;19.51;86.54;98397.84;5155365;27;20900;-72
2021/06/21 02:15:13;;;;;;;12.25;2.72;;;;;;;19.49;86.84;98395.28;5155244;27;20890;-73
2021/06/21 02:17:42;;;;;;;14.27;2.55;;;;;;;19.39;87.56;98411.00;5155028;27;20324;-73
2021/06/21 02:20:10;;;;;;;6.90;2.20;;;;;;;19.35;87.92;98396.84;5155143;27;20534;-72
2021/06/21 02:22:40;;;;;;;10.23;2.60;;;;;;;19.23;88.73;98392.78;5154517;27;20276;-72
2021/06/21 02:25:08;;;;;;;6.88;2.53;;;;;;;19.34;88.46;98397.88;5154800;27;20217;-72
2021/06/21 02:27:37;;;;;;;4.25;2.10;;;;;;;19.43;87.84;98395.16;5154969;27;20232;-73
2021/06/21 02:30:07;;;;;;;10.88;2.80;;;;;;;19.41;88.16;98406.22;5154954;27;20264;-74
2021/06/21 02:32:33;;;;;;;7.60;2.45;;;;;;;19.48;87.34;98409.13;5154753;27;20199;-72
2021/06/21 02:35:00;;;;;;;9.67;3.20;;;;;;;19.58;87.53;98407.03;5154336;27;20220;-73
2021/06/21 02:37:27;;;;;;;9.75;2.65;;;;;;;19.62;86.27;98408.38;5155022;27;20473;-73
2021/06/21 02:39:55;;;;;;;7.47;3.00;;;;;;;19.64;86.53;98417.25;5154751;27;20272;-73
2021/06/21 02:42:21;;;;;;;6.90;2.60;;;;;;;19.64;86.37;98400.03;5155053;27;20754;-73
2021/06/21 02:44:48;;;;;;;5.20;2.35;;;;;;;19.69;86.43;98409.41;5154844;27;20593;-73
2021/06/21 02:47:15;;;;;;;7.93;2.90;;;;;;;19.67;86.58;98414.19;5154572;27;20212;-74
2021/06/21 02:49:42;;;;;;;6.43;2.45;;;;;;;19.81;85.32;98407.16;5154526;27;20190;-72
2021/06/21 02:52:16;;;;;;;7.77;2.30;;;;;;;19.70;85.57;98405.66;5154320;27;20190;-72
2021/06/21 02:54:52;;;;;;;9.30;3.10;;;;;;;19.71;86.02;98401.88;5154550;27;20815;-73
2021/06/21 02:57:29;;;;;;;7.13;2.63;;;;;;;19.70;85.47;98410.28;5154142;27;20991;-73
2021/06/21 02:59:58;;;;;;;8.70;2.42;;;;;;;19.51;86.33;98406.88;5154278;27;20216;-73
2021/06/21 03:02:26;;;;;;;6.43;2.10;;;;;;;19.44;87.14;98394.94;5153917;27;20193;-74
2021/06/21 03:04:54;;;;;;;8.07;2.85;;;;;;;19.40;87.19;98398.22;5153983;27;20221;-73
2021/06/21 03:07:23;;;;;;;6.57;1.95;;;;;;;19.34;87.53;98395.16;5154029;27;20284;-73
2021/06/21 03:09:50;;;;;;;10.95;2.90;;;;;;;19.28;87.68;98406.75;5154039;27;20190;-73
2021/06/21 03:12:21;;;;;;;7.60;2.60;;;;;;;19.12;88.95;98396.72;5154580;27;20277;-73
2021/06/21 03:14:50;;;;;;;7.40;2.58;;;;;;;19.21;88.42;98396.72;5146075;27;20212;-74
2021/06/21 03:17:19;;;;;;;12.50;3.20;;;;;;;19.16;88.77;98392.63;5154037;27;20189;-73
2021/06/21 03:19:46;;;;;;;8.20;2.85;;;;;;;19.22;88.45;98393.84;5153730;27;20204;-73
2021/06/21 03:22:13;;;;;;;7.72;2.92;;;;;;;19.14;89.26;98400.13;5154079;27;20280;-73
2021/06/21 03:24:39;;;;;;;7.40;2.55;;;;;;;19.15;89.07;98400.97;5153606;27;20215;-72
2021/06/21 03:27:07;;;;;;;14.68;2.80;;;;;;;19.18;89.04;98408.84;5153911;27;20201;-74
2021/06/21 03:29:36;;;;;;;7.60;2.72;;;;;;;19.02;89.75;98409.72;5154001;27;20263;-74
2021/06/21 03:32:24;;;;;;;4.97;2.28;;;;;;;18.99;90.07;98417.38;5145156;27;20196;-73
2021/06/21 03:34:51;;;;;;;11.32;3.33;;;;;;;18.99;89.65;98409.19;5153681;27;20215;-74
2021/06/21 03:37:17;;;;;;;8.43;3.00;;;;;;;18.89;90.60;98420.28;5153464;27;20190;-74
2021/06/21 03:39:44;;;;;;;8.05;2.45;;;;;;;18.93;90.65;98425.22;5153641;27;20282;-73
2021/06/21 03:42:11;;;;;;;6.50;2.55;;;;;;;18.92;90.32;98422.66;5153486;27;20607;-74
2021/06/21 03:44:37;;;;;;;7.72;2.70;;;;;;;19.01;90.12;98438.00;5153342;27;20185;-73
2021/06/21 03:47:04;;;;;;;11.05;2.90;;;;;;;18.95;90.26;98431.38;5153274;27;20197;-73
2021/06/21 03:49:32;;;;;;;11.98;3.30;;;;;;;19.02;90.30;98438.88;5153491;27;20217;-74
2021/06/21 03:51:59;;;;;;;10.80;2.88;;;;;;;18.98;89.98;98438.34;5153166;27;20276;-74
2021/06/21 03:54:26;;;;;;;8.98;2.92;;;;;;;19.03;89.68;98430.50;5153762;27;20193;-74
2021/06/21 03:56:53;;;;;;;6.70;2.78;;;;;;;19.05;89.38;98423.00;5152948;27;20233;-74
2021/06/21 03:59:20;;;;;;;6.18;2.80;;;;;;;19.10;88.91;98420.59;5153038;27;20218;-74
2021/06/21 04:01:47;;;;;;;6.85;2.78;;;;;;;19.06;89.15;98419.25;5153506;27;20189;-72
2021/06/21 04:04:14;;;;;;;4.63;2.72;;;;;;;19.05;89.21;98417.53;5152931;27;20222;-73
2021/06/21 04:06:42;;;;;;;6.60;3.22;;;;;;;19.09;88.69;98431.72;5153629;27;20206;-73
2021/06/21 04:09:09;;;;;;;8.90;2.92;;;;;;;19.08;89.01;98419.91;5153191;27;20287;-74
2021/06/21 04:11:37;;;;;;;8.35;2.65;;;;;;;19.00;88.80;98419.09;5152847;27;20203;-74
2021/06/21 04:14:04;;;;;;;5.75;2.92;;;;;;;19.03;89.16;98419.59;5153479;27;20625;-73
2021/06/21 04:16:30;;;;;;;5.25;2.70;;;;;;;19.02;89.00;98412.44;5153098;27;20215;-73
2021/06/21 04:18:57;;;;;;;6.22;2.83;;;;;;;19.07;88.16;98423.69;5153313;27;20654;-73
2021/06/21 04:21:24;;;;;;;4.88;2.30;;;;;;;19.17;87.25;98426.22;5152846;27;20224;-74
2021/06/21 04:23:52;;;;;;;11.85;2.60;;;;;;;19.20;87.02;98425.03;5153209;27;21879;-74
2021/06/21 04:26:20;;;;;;;9.00;3.13;;;;;;;19.20;86.99;98431.34;5153355;27;20209;-74
2021/06/21 04:28:47;;;;;;;7.35;2.33;;;;;;;19.22;86.87;98434.75;5152645;27;20631;-74
2021/06/21 04:31:14;;;;;;;9.27;2.90;;;;;;;19.24;86.79;98438.13;5152870;27;20549;-74
2021/06/21 04:33:41;;;;;;;9.10;2.70;;;;;;;19.26;86.80;98441.56;5152641;27;20281;-73
2021/06/21 04:36:08;;;;;;;4.88;2.33;;;;;;;19.28;86.50;98438.66;5152771;27;20212;-75
2021/06/21 04:41:58;;;;;;;4.57;2.65;;;;;;;19.61;85.12;98449.53;5142486;27;20193;-73
2021/06/21 04:44:24;;;;;;;7.05;2.30;;;;;;;19.74;83.70;98445.25;5147919;27;20272;-72
2021/06/21 04:46:51;;;;;;;7.00;2.87;;;;;;;19.83;83.71;98453.38;5147236;27;20229;-73
2021/06/21 04:49:18;;;;;;;5.45;2.65;;;;;;;19.88;83.04;98453.72;5147426;27;20946;-73
2021/06/21 04:51:46;;;;;;;8.25;2.92;;;;;;;19.88;83.43;98464.66;5154507;27;20190;-73
2021/06/21 04:54:14;;;;;;;6.10;3.10;;;;;;;19.90;83.30;98465.31;5152145;27;20244;-73
2021/06/21 04:56:40;;;;;;;8.07;3.17;;;;;;;19.98;82.40;98466.13;5154180;27;20498;-74
2021/06/21 04:59:08;;;;;;;8.33;3.33;;;;;;;19.85;83.49;98465.00;5153173;27;20984;-74
2021/06/21 05:01:35;;;;;;;7.18;3.38;;;;;;;19.93;83.37;98467.72;5152361;27;20462;-73
2021/06/21 05:04:04;;;;;;;6.93;3.13;;;;;;;19.93;83.23;98462.25;5154674;27;20245;-73
2021/06/21 05:06:31;;;;;;;5.43;2.72;;;;;;;19.88;83.86;98465.50;5148996;27;20435;-73
2021/06/21 05:08:58;;;;;;;11.93;3.27;;;;;;;20.10;82.35;98465.75;5149599;27;20190;-74
2021/06/21 05:11:24;;;;;;;8.00;2.80;;;;;;;20.19;81.45;98461.94;5151144;27;20859;-73
2021/06/21 05:13:51;;;;;;;9.17;3.20;;;;;;;20.18;81.45;98463.84;5151671;27;20924;-74
2021/06/21 05:16:19;;;;;;;8.63;2.63;;;;;;;19.96;83.09;98470.06;5152578;27;20497;-74
2021/06/21 05:18:45;;;;;;;5.50;2.83;;;;;;;19.95;83.77;98474.69;5145838;27;20225;-72
2021/06/21 05:21:12;;;;;;;8.57;3.60;;;;;;;19.98;83.62;98473.47;5155808;27;20434;-74
2021/06/21 05:23:39;;;;;;;10.10;3.50;;;;;;;20.11;82.41;98470.19;5149564;27;20949;-75
2021/06/21 05:26:06;;;;;;;5.97;2.33;;;;;;;20.16;81.37;98471.34;5149384;27;20557;-73
2021/06/21 05:28:33;;;;;;;5.40;2.53;;;;;;;20.30;81.04;98471.63;5155364;27;20514;-74
2021/06/21 05:30:59;;;;;;;7.03;2.43;;;;;;;20.41;80.14;98474.81;5156207;27;20472;-73
2021/06/21 05:33:27;;;;;;;7.40;5.03;;;;;;;20.46;79.75;98471.53;5156294;27;20519;-75
2021/06/21 05:35:54;;;;;;;8.67;2.93;;;;;;;20.52;79.06;98468.09;5155750;27;20908;-75
2021/06/21 05:38:20;;;;;;;11.77;3.33;;;;;;;20.50;79.51;98475.63;5155698;27;20620;-75
2021/06/21 05:40:47;;;;;;;14.10;10.30;;;;;;;20.30;80.44;98477.94;5156047;27;20431;-76
2021/06/21 05:43:14;;;;;;;9.37;3.60;;;;;;;20.51;79.66;98479.19;5156094;27;20538;-73
2021/06/21 05:45:41;;;;;;;3.83;2.70;;;;;;;20.49;79.49;98482.13;5155523;27;20466;-74
2021/06/21 05:48:08;;;;;;;5.77;3.30;;;;;;;20.53;79.92;98491.69;5155504;27;20430;-73
2021/06/21 05:50:37;;;;;;;10.47;3.27;;;;;;;20.56;79.09;98485.88;5154841;27;20515;-75
2021/06/21 05:53:04;;;;;;;10.03;3.50;;;;;;;20.73;78.46;98483.03;5155061;27;20443;-75
2021/06/21 05:55:31;;;;;;;5.33;2.93;;;;;;;20.91;77.83;98480.84;5155673;27;20495;-74
2021/06/21 05:57:58;;;;;;;10.40;3.40;;;;;;;20.84;77.48;98479.88;5155834;27;20897;-74
2021/06/21 06:00:25;;;;;;;5.50;3.27;;;;;;;20.98;77.01;98475.50;5155368;27;20960;-74
2021/06/21 06:02:52;;;;;;;8.20;3.70;;;;;;;21.08;75.89;98481.59;5155884;27;20506;-73
2021/06/21 06:05:19;;;;;;;7.63;2.80;;;;;;;20.98;75.96;98484.56;5147011;27;20557;-72
2021/06/21 06:07:48;;;;;;;10.90;3.70;;;;;;;20.92;75.99;98479.81;5156258;27;20518;-73
2021/06/21 06:10:15;;;;;;;10.50;5.47;;;;;;;21.04;76.24;98478.34;5155817;27;20496;-75
2021/06/21 06:12:43;;;;;;;7.33;3.90;;;;;;;21.21;75.28;98472.72;5156244;27;20431;-73
2021/06/21 06:15:11;;;;;;;17.20;3.83;;;;;;;21.14;75.54;98480.84;5156339;27;20467;-74
2021/06/21 06:17:37;;;;;;;9.03;3.93;;;;;;;21.12;75.66;98482.03;5156166;27;20524;-72
2021/06/21 06:20:05;;;;;;;22.13;4.50;;;;;;;21.21;75.42;98492.75;5155395;27;20439;-74
2021/06/21 06:22:32;;;;;;;9.17;3.83;;;;;;;21.12;75.20;98487.53;5155743;27;20541;-73
2021/06/21 06:25:00;;;;;;;7.10;3.30;;;;;;;20.84;76.90;98488.06;5156014;27;20911;-73
2021/06/21 06:27:27;;;;;;;10.00;3.57;;;;;;;20.92;76.28;98498.13;5156511;27;21560;-73
2021/06/21 06:29:54;;;;;;;10.60;3.60;;;;;;;20.90;76.44;98500.19;5155942;27;20885;-74
2021/06/21 06:32:20;;;;;;;11.50;4.07;;;;;;;20.97;76.18;98510.22;5155302;27;20462;-74
2021/06/21 06:34:47;;;;;;;6.57;3.50;;;;;;;20.94;76.03;98512.44;5156348;27;20475;-73
2021/06/21 06:37:13;;;;;;;7.17;3.50;;;;;;;20.92;76.43;98514.53;5155012;27;20459;-73
2021/06/21 06:39:40;;;;;;;15.83;4.50;;;;;;;21.18;75.11;98511.44;5155304;27;20436;-72
2021/06/21 06:42:08;;;;;;;5.60;3.63;;;;;;;21.13;75.24;98506.50;5155062;27;20431;-74
2021/06/21 06:44:37;;;;;;;6.20;4.07;;;;;;;21.00;75.36;98504.38;5155006;27;20449;-74
2021/06/21 06:47:04;;;;;;;7.00;3.70;;;;;;;21.13;74.74;98511.13;5155629;27;21184;-73
2021/06/21 06:49:31;;;;;;;10.73;3.80;;;;;;;21.26;74.74;98511.38;5154881;27;20467;-74
2021/06/21 06:51:57;;;;;;;6.73;3.30;;;;;;;21.20;74.39;98509.34;5155446;27;20446;-74
2021/06/21 06:54:27;;;;;;;5.60;4.07;;;;;;;21.02;75.16;98510.50;5155110;27;20896;-73
2021/06/21 06:57:02;;;;;;;6.87;3.60;;;;;;;21.02;74.92;98509.66;5155661;27;20547;-73
2021/06/21 06:59:32;;;;;;;14.77;4.30;;;;;;;21.26;74.08;98514.09;5153831;27;20430;-73
2021/06/21 07:02:00;;;;;;;11.37;4.20;;;;;;;21.35;73.68;98520.38;5150976;27;20522;-74
2021/06/21 07:04:27;;;;;;;9.30;3.77;;;;;;;21.26;73.48;98522.31;5154610;27;20553;-74
2021/06/21 07:06:57;;;;;;;10.53;3.60;;;;;;;21.17;73.55;98528.91;5154448;27;20423;-73
2021/06/21 07:09:25;;;;;;;10.30;4.43;;;;;;;21.34;73.50;98537.81;5154033;27;20908;-75
2021/06/21 07:11:52;;;;;;;5.17;3.10;;;;;;;21.43;72.71;98529.38;5152920;27;20435;-75
2021/06/21 07:14:20;;;;;;;12.00;3.80;;;;;;;21.75;71.42;98529.25;5154232;27;20519;-74
2021/06/21 07:16:49;;;;;;;7.10;3.20;;;;;;;21.79;70.64;98545.13;5154274;27;20563;-74
2021/06/21 07:19:16;;;;;;;8.17;4.57;;;;;;;21.66;70.72;98542.16;5154572;27;20482;-74
2021/06/21 07:21:43;;;;;;;7.70;3.70;;;;;;;21.63;70.91;98551.63;5153842;27;20475;-75
2021/06/21 07:24:10;;;;;;;4.77;3.37;;;;;;;21.17;72.44;98556.25;5154092;27;20434;-73
2021/06/21 07:26:39;;;;;;;5.03;3.27;;;;;;;20.99;73.54;98546.47;5154218;27;20551;-75
2021/06/21 07:29:06;;;;;;;5.03;3.50;;;;;;;21.33;72.37;98547.06;5152734;27;20435;-75
2021/06/21 07:31:34;;;;;;;4.80;3.40;;;;;;;21.79;70.99;98549.75;5154163;27;20439;-74
2021/06/21 07:34:02;;;;;;;7.50;4.60;;;;;;;22.26;67.93;98551.34;5153952;27;20455;-74
2021/06/21 07:36:29;;;;;;;7.83;3.67;;;;;;;22.51;66.15;98548.28;5149169;27;20941;-75
2021/06/21 07:38:56;;;;;;;14.97;3.50;;;;;;;22.41;66.90;98554.06;5153816;27;20935;-74
2021/06/21 07:41:23;;;;;;;4.10;3.30;;;;;;;22.71;65.24;98557.63;5153284;27;20531;-75
2021/06/21 07:43:50;;;;;;;5.87;3.60;;;;;;;22.75;64.94;98561.69;5152212;27;20446;-74
2021/06/21 07:46:17;;;;;;;6.57;2.93;;;;;;;23.21;63.47;98555.88;5154308;27;20783;-73
2021/06/21 07:48:44;;;;;;;7.87;3.50;;;;;;;23.37;62.58;98563.00;5153685;27;20788;-74
2021/06/21 07:51:14;;;;;;;8.90;4.03;;;;;;;23.00;64.01;98564.97;5154232;27;20411;-74
2021/06/21 07:53:42;;;;;;;6.20;3.73;;;;;;;22.64;65.05;98559.44;5154473;27;20476;-72
2021/06/21 07:56:10;;;;;;;4.20;3.50;;;;;;;22.38;66.18;98559.94;5153047;27;20435;-74
2021/06/21 07:58:37;;;;;;;5.27;3.60;;;;;;;22.42;66.45;98564.00;5153779;27;20643;-73
2021/06/21 08:01:04;;;;;;;7.03;3.90;;;;;;;22.32;67.01;98560.69;5153896;27;20427;-79
2021/06/21 08:03:31;;;;;;;4.27;3.47;;;;;;;22.42;66.83;98561.25;5153078;27;20539;-74
2021/06/21 08:06:01;;;;;;;8.67;4.27;;;;;;;22.54;66.93;98559.72;5152720;27;20439;-74
2021/06/21 08:08:29;;;;;;;7.80;3.90;;;;;;;22.77;65.82;98569.72;5153196;27;20920;-73
2021/06/21 08:10:56;;;;;;;4.77;3.90;;;;;;;22.81;65.75;98569.13;5152816;27;20438;-73
2021/06/21 08:13:22;;;;;;;7.70;4.40;;;;;;;23.19;64.31;98565.38;5152837;27;20969;-73
2021/06/21 08:15:49;;;;;;;8.60;3.67;;;;;;;23.58;63.10;98564.03;5152425;27;20462;-75
2021/06/21 08:18:16;;;;;;;6.73;3.70;;;;;;;23.43;62.97;98575.13;5152630;27;20478;-73
2021/06/21 08:20:43;;;;;;;18.77;3.70;;;;;;;23.68;62.48;98568.16;5153093;27;20525;-74
2021/06/21 08:23:10;;;;;;;3.50;3.20;;;;;;;24.34;59.91;98559.53;5153901;27;20441;-74
2021/06/21 08:25:38;;;;;;;6.00;3.83;;;;;;;24.67;58.71;98572.66;5157130;27;20467;-73
2021/06/21 08:28:05;;;;;;;6.33;3.77;;;;;;;24.85;57.92;98569.34;5157178;27;20430;-74
2021/06/21 08:30:33;;;;;;;7.00;3.90;;;;;;;24.95;57.16;98563.44;5156816;27;20932;-74
2021/06/21 08:33:00;;;;;;;5.23;3.23;;;;;;;25.49;55.34;98558.94;5156892;27;20431;-73
2021/06/21 08:35:26;;;;;;;6.40;3.40;;;;;;;25.18;55.51;98561.19;5156976;27;20527;-73
2021/06/21 08:37:54;;;;;;;6.00;3.37;;;;;;;24.47;57.41;98569.81;5156856;27;20467;-73
2021/06/21 08:40:22;;;;;;;8.77;3.50;;;;;;;24.18;58.71;98564.53;5157023;27;20445;-74
2021/06/21 08:42:52;;;;;;;5.33;3.60;;;;;;;23.57;60.62;98565.94;5149053;27;20538;-74
2021/06/21 08:45:19;;;;;;;4.93;3.33;;;;;;;23.41;62.52;98566.22;5156702;27;20431;-72
2021/06/21 08:47:46;;;;;;;3.87;3.30;;;;;;;22.89;64.28;98573.66;5156706;27;20919;-75
2021/06/21 08:50:17;;;;;;;6.40;3.43;;;;;;;23.00;63.93;98578.69;5156489;27;20529;-74
2021/06/21 08:52:44;;;;;;;8.13;3.43;;;;;;;22.76;65.14;98585.31;5156688;27;20431;-73
2021/06/21 08:55:12;;;;;;;5.13;3.60;;;;;;;23.02;64.71;98579.34;5157116;27;20442;-73
2021/06/21 08:57:42;;;;;;;4.17;3.30;;;;;;;24.03;61.36;98564.63;5156217;27;20462;-74
2021/06/21 09:00:12;;;;;;;3.83;3.30;;;;;;;23.89;60.96;98572.78;5156529;27;20918;-72
2021/06/21 09:02:39;;;;;;;8.40;4.70;;;;;;;23.74;61.45;98561.00;5156191;27;20430;-74
2021/06/21 09:05:08;;;;;;;6.00;3.43;;;;;;;23.70;60.69;98555.06;5156059;27;20976;-74
2021/06/21 09:07:34;;;;;;;4.00;3.20;;;;;;;23.19;62.16;98563.47;5156533;27;20438;-73
2021/06/21 09:10:05;;;;;;;4.67;3.33;;;;;;;22.57;64.12;98572.22;5156220;27;20533;-74
2021/06/21 09:12:33;;;;;;;7.50;3.40;;;;;;;22.74;63.42;98575.59;5155866;27;20431;-75
2021/06/21 09:15:02;;;;;;;6.73;3.13;;;;;;;22.87;62.50;98565.63;5155904;27;20427;-73
2021/06/21 09:17:31;;;;;;;3.77;3.47;;;;;;;23.06;61.69;98577.03;5155953;27;20471;-74
2021/06/21 09:20:02;;;;;;;3.63;2.80;;;;;;;23.21;60.61;98575.09;5156508;27;20443;-73
2021/06/21 09:22:33;;;;;;;4.07;3.30;;;;;;;23.35;59.10;98572.50;5155464;27;20503;-74
2021/06/21 09:25:06;;;;;;;6.50;3.07;;;;;;;22.86;60.31;98585.88;5155696;27;20427;-74
2021/06/21 09:27:33;;;;;;;3.50;2.57;;;;;;;23.15;59.85;98580.53;5155657;27;20455;-73
2021/06/21 09:30:07;;;;;;;4.80;3.23;;;;;;;23.68;58.37;98578.31;5155712;27;20449;-73
2021/06/21 09:32:43;;;;;;;3.90;3.10;;;;;;;24.10;56.11;98577.38;5155525;27;20430;-73
2021/06/21 09:35:13;;;;;;;4.10;2.80;;;;;;;24.24;55.74;98581.09;5154173;27;20427;-73
2021/06/21 09:37:45;;;;;;;7.63;3.43;;;;;;;24.44;55.30;98575.66;5155583;27;20495;-74
2021/06/21 09:40:26;;;;;;;4.40;3.07;;;;;;;24.43;55.33;98597.91;5147912;27;20526;-73
2021/06/21 09:42:53;;;;;;;8.23;3.60;;;;;;;24.61;54.86;98600.16;5155249;27;20523;-73
2021/06/21 09:45:20;;;;;;;5.50;2.97;;;;;;;24.66;54.88;98598.47;5155524;27;20443;-73
2021/06/21 09:47:48;;;;;;;2.90;2.70;;;;;;;24.73;55.08;98604.00;5155319;27;20463;-74
2021/06/21 09:50:18;;;;;;;5.57;2.93;;;;;;;24.65;55.23;98605.03;5155692;27;20431;-73
2021/06/21 09:52:48;;;;;;;3.00;2.63;;;;;;;24.56;53.68;98611.78;5155432;27;20849;-74
2021/06/21 09:55:26;;;;;;;5.67;2.40;;;;;;;24.29;55.07;98602.47;5150127;27;20839;-73
2021/06/21 09:58:11;;;;;;;5.67;2.80;;;;;;;23.77;57.12;98603.78;5146953;27;20477;-74
2021/06/21 10:00:39;;;;;;;6.43;2.40;;;;;;;23.44;58.50;98601.53;5155217;27;20523;-73
2021/06/21 10:03:14;;;;;;;7.73;3.40;;;;;;;23.40;58.45;98587.31;5155081;27;20932;-73
2021/06/21 10:05:43;;;;;;;6.40;3.23;;;;;;;23.53;57.61;98587.44;5153654;27;20521;-73
2021/06/21 10:08:12;;;;;;;4.43;2.83;;;;;;;23.39;58.09;98598.53;5154991;27;20439;-74
2021/06/21 10:10:40;;;;;;;2.87;2.67;;;;;;;23.26;57.89;98601.97;5155114;27;20835;-73
2021/06/21 10:13:07;;;;;;;5.20;3.17;;;;;;;23.10;58.34;98603.91;5152254;27;20431;-73
2021/06/21 10:15:35;;;;;;;2.70;2.50;;;;;;;23.48;56.87;98600.94;5152070;27;20914;-73
2021/06/21 10:18:04;;;;;;;3.47;3.17;;;;;;;24.27;54.57;98597.16;5150188;27;20459;-73
2021/06/21 10:20:32;;;;;;;15.53;3.03;;;;;;;24.21;53.42;98592.47;5147536;27;20437;-73
2021/06/21 10:23:00;;;;;;;3.03;2.70;;;;;;;24.76;51.13;98592.59;5146722;27;20489;-73
2021/06/21 10:25:27;;;;;;;4.90;2.57;;;;;;;25.08;50.11;98606.72;5154926;27;20457;-73
2021/06/21 10:27:54;;;;;;;2.93;2.40;;;;;;;25.15;50.51;98608.41;5154450;27;20442;-73
2021/06/21 10:30:22;;;;;;;3.87;2.60;;;;;;;25.54;49.65;98601.31;5151169;27;20781;-74
2021/06/21 10:32:52;;;;;;;3.70;2.90;;;;;;;26.06;48.47;98598.00;5149747;27;20500;-73
2021/06/21 10:35:19;;;;;;;3.47;2.63;;;;;;;26.23;47.56;98602.00;5152514;27;20515;-74
2021/06/21 10:37:59;;;;;;;3.40;2.70;;;;;;;26.14;48.14;98595.00;5153621;27;20477;-73
2021/06/21 10:40:26;;;;;;;8.13;2.57;;;;;;;25.58;48.98;98597.09;5154485;27;20449;-74
2021/06/21 10:42:52;;;;;;;3.50;2.87;;;;;;;25.27;50.00;98594.91;5153850;27;20463;-73
2021/06/21 10:45:21;;;;;;;2.80;2.60;;;;;;;25.79;48.24;98587.75;5154093;27;20435;-73
2021/06/21 10:47:50;;;;;;;4.17;2.47;;;;;;;26.17;47.54;98583.53;5152658;27;20503;-74
2021/06/21 10:50:26;;;;;;;3.67;2.70;;;;;;;26.39;46.93;98582.22;5154421;27;20776;-74
2021/06/21 10:53:02;;;;;;;3.23;2.93;;;;;;;26.48;46.74;98591.13;5151657;27;20451;-74
2021/06/21 10:55:41;;;;;;;2.43;2.23;;;;;;;26.57;46.24;98600.03;5154286;27;20435;-73
2021/06/21 10:58:46;;;;;;;3.97;3.17;;;;;;;27.08;45.43;98590.06;5154251;27;20868;-73
2021/06/21 11:01:21;;;;;;;3.67;2.10;;;;;;;27.35;43.69;98597.16;5149569;27;20523;-73
2021/06/21 11:03:49;;;;;;;4.30;2.17;;;;;;;27.53;43.33;98598.34;5153526;27;20458;-74
2021/06/21 11:06:37;;;;;;;4.27;2.90;;;;;;;27.62;42.83;98595.06;5153777;27;20435;-74
2021/06/21 11:09:08;;;;;;;2.57;2.37;;;;;;;27.54;42.38;98594.50;5153739;27;20467;-74
2021/06/21 11:11:52;;;;;;;3.23;2.67;;;;;;;27.79;42.00;98594.50;5152528;27;20519;-74
2021/06/21 11:14:25;;;;;;;4.30;2.30;;;;;;;27.85;42.43;98599.19;5149049;27;20832;-74
2021/06/21 11:17:13;;;;;;;4.00;2.60;;;;;;;27.78;42.72;98595.59;5152842;27;20484;-73
2021/06/21 11:19:41;;;;;;;3.57;2.43;;;;;;;27.31;43.01;98595.91;5153631;27;20435;-72
2021/06/21 11:22:09;;;;;;;5.10;2.70;;;;;;;27.07;43.61;98604.94;5153729;27;20455;-73
2021/06/21 11:24:57;;;;;;;5.53;3.10;;;;;;;27.27;43.39;98602.09;5153349;27;20511;-73
2021/06/21 11:27:40;;;;;;;2.90;2.70;;;;;;;27.41;43.31;98609.25;5151555;27;20443;-73
2021/06/21 11:30:22;;;;;;;3.73;2.43;;;;;;;26.64;45.07;98609.16;5146233;27;20539;-73
2021/06/21 11:32:58;;;;;;;2.47;2.27;;;;;;;26.28;46.25;98602.19;5145423;27;20928;-72
2021/06/21 11:35:58;;;;;;;5.40;2.60;;;;;;;26.12;46.90;98608.19;5153056;27;20517;-73
2021/06/21 11:38:35;;;;;;;2.50;2.20;;;;;;;25.84;47.28;98600.06;5149572;27;20471;-73
2021/06/21 11:41:28;;;;;;;8.23;2.63;;;;;;;25.91;47.74;98601.78;5143796;27;20440;-73
2021/06/21 11:44:01;;;;;;;3.77;2.60;;;;;;;25.84;47.47;98595.41;5152522;27;20487;-74